Austinville, Pennsylvania
Current Conditions -  °F | °C
As of 5:53 AM on Thursday 23 Oct 2014 (Local Time) from KELM Reporting Station
Overcast Overcast  
Wind Chill: 43°   Ceiling: 2600
Heat Index: 48°   Visibility: 10mi
Dew Point: 41°   Wind: 12mph
Humidity: 77%   Direction: 350°N
Pressure: 29.98"   Gusts: 24mph
Location:  41.8495°N, 76.7925°W
Report Text: KELM 230953Z 35010G21KT 10SM SCT020 OVC026 09/05 A2998 RMK AO2 SLP157 T00890050 $
Loading
Personal Weather Stations






























Interactive Weather Map
Tropical Storm Tracking
New forecast layout! Learn more

10-Day Weather Forecast

Advertisements
Track Severe Weather on mobile